Kine — C6WT4 — position and weather

sailwx.info

Track history (hours):
 
Tides and Currents Weather Stations Pressure Air Temp Water Temp Dewpoint Dewpoint Depression Visibility Wind Speed Wind Dir Waves Ship Positions

Kine

Last reported at 2015-Sep-02 20:33 UTC. Time now 2015-Sep-03 02:35 UTC.
Position N 55°26' E 015°17'.

Length 89 m; draft 3.5 m.

Type: Cargo ship. MMSI: 311117000.

Date/timePositionNaut miles runAvg speedWind from/ knotsBaromVisibWave heightAir tempDewpointWater temp
2015-Sep-02 20:33N 55°26' E 015°17'1010.1
2015-Sep-02 19:33N 55°24' E 014°60'1010.1
2015-Sep-02 18:33N 55°23' E 014°42'10 9.7
2015-Sep-02 17:33N 55°16' E 014°30'10 9.6
2015-Sep-02 16:33N 55°10' E 014°16'10 9.6
2015-Sep-02 15:33N 55°11' E 013°59'31 9.7
2015-Sep-02 12:19N 55°14' E 013°05'8 9.9
2015-Sep-02 11:34N 55°15' E 012°52'9 9.2
2015-Sep-02 10:33N 55°19' E 012°37'10 9.8
2015-Sep-02 09:33N 55°29' E 012°41'9 9.5
2015-Sep-02 08:33N 55°38' E 012°42'10 9.9
2015-Sep-02 07:33N 55°48' E 012°41'10 9.8
2015-Sep-02 06:34N 55°58' E 012°40'9 9.2
2015-Sep-02 05:33N 56°06' E 012°33'1010.3
2015-Sep-02 04:33N 56°12' E 012°18'19 9.0
2015-Sep-02 02:24N 56°29' E 011°59'8 9.3
2015-Sep-02 01:33N 56°36' E 011°56'9 9.2
2015-Sep-02 00:33N 56°45' E 011°52'10 9.6
2015-Sep-01 23:33N 56°54' E 011°45'9 9.1
2015-Sep-01 22:33N 57°03' E 011°38'10 9.0
2015-Sep-01 21:29N 57°12' E 011°32'8 9.2
2015-Sep-01 20:33N 57°19' E 011°25'9 8.8
2015-Sep-01 19:33N 57°27' E 011°17'9 8.8
2015-Sep-01 18:33N 57°32' E 011°04'9 9.2
2015-Sep-01 17:33N 57°37' E 010°49'11 0.8
2015-Sep-01 04:13N 57°47' E 010°44'4 6.2
2015-Sep-01 03:33N 57°51' E 010°41'6 6.2
2015-Sep-01 02:33N 57°57' E 010°36'6 6.2
2015-Sep-01 01:34N 58°02' E 010°31'6 6.2
2015-Sep-01 00:34N 58°08' E 010°27'6 6.1
2015-Aug-31 23:33N 58°14' E 010°23'6 6.2
2015-Aug-31 22:33N 58°20' E 010°19'6 6.3
2015-Aug-31 21:34N 58°26' E 010°14'7 6.8
2015-Aug-31 20:29N 58°32' E 010°08'7 7.2
2015-Aug-31 19:33N 58°38' E 010°02'7 7.0
2015-Aug-31 18:34N 58°44' E 009°57'7 7.3
2015-Aug-31 17:34N 58°51' E 009°52'8 7.6
2015-Aug-31 16:33N 58°58' E 009°46'2 0.1
2015-Aug-31 03:18N 58°60' E 009°47'6 7.9
2015-Aug-31 02:33N 58°54' E 009°47'7 7.0
2015-Aug-31 01:33N 58°48' E 009°38'7 7.2
2015-Aug-31 00:33N 58°43' E 009°28'8 7.1
2015-Aug-30 23:27N 58°37' E 009°19'7 7.0
2015-Aug-30 22:31N 58°32' E 009°10'6 6.5
2015-Aug-30 21:33N 58°28' E 009°02'6 6.0
2015-Aug-30 20:30N 58°23' E 008°53'6 6.0
2015-Aug-30 19:33N 58°19' E 008°46'6 6.1
2015-Aug-30 18:33N 58°15' E 008°37'6 6.1
2015-Aug-30 17:33N 58°11' E 008°29'6 6.0
2015-Aug-30 16:33N 58°07' E 008°21'68 5.6
2015-Aug-30 04:33N 58°13' E 006°13'7 7.4
2015-Aug-30 03:33N 58°18' E 006°03'9 8.5
2015-Aug-30 02:33N 58°24' E 005°51'8 8.1
2015-Aug-30 01:33N 58°30' E 005°40'16 8.1
2015-Aug-29 23:31N 58°44' E 005°25'7 7.6
2015-Aug-29 22:33N 58°51' E 005°30'9 8.6
2015-Aug-29 21:33N 58°60' E 005°33'3 2.7
2015-Aug-29 20:32N 59°01' E 005°37'0 0.0
2015-Aug-29 19:32N 59°01' E 005°37'0 0.0
2015-Aug-29 18:32N 59°01' E 005°37'0 0.0
2015-Aug-29 17:32N 59°01' E 005°37'0 0.0
2015-Aug-29 16:32N 59°01' E 005°37'0 0.0
2015-Aug-29 15:32N 59°01' E 005°37'0 0.0
2015-Aug-29 14:32N 59°01' E 005°37'0 0.0
2015-Aug-29 13:32N 59°01' E 005°37'0 0.0
2015-Aug-29 12:32N 59°01' E 005°37'0 0.0
2015-Aug-29 11:32N 59°01' E 005°37'0 0.0
2015-Aug-29 10:32N 59°01' E 005°37'0 0.0
2015-Aug-29 09:32N 59°01' E 005°37'0 0.0
2015-Aug-29 08:32N 59°01' E 005°37'0 0.0
2015-Aug-29 07:32N 59°01' E 005°37'0 0.0
2015-Aug-29 06:32N 59°01' E 005°37'0 0.0
2015-Aug-29 05:32N 59°01' E 005°37'0 0.0
2015-Aug-29 04:32N 59°01' E 005°37'0 0.0
2015-Aug-29 03:32N 59°01' E 005°37'0 0.0
2015-Aug-29 02:32N 59°01' E 005°37'0 0.0
2015-Aug-29 01:32N 59°01' E 005°37'0 0.0
2015-Aug-29 00:32N 59°01' E 005°37'0 0.0
2015-Aug-28 23:32N 59°01' E 005°37'0 0.0
2015-Aug-28 22:32N 59°01' E 005°37'0 0.0
2015-Aug-28 21:32N 59°01' E 005°37'0 0.0
2015-Aug-28 20:32N 59°01' E 005°37'0 0.0
2015-Aug-28 19:32N 59°01' E 005°37'0 0.0
2015-Aug-28 18:32N 59°01' E 005°37'0 0.0
2015-Aug-28 17:32N 59°01' E 005°37'0 0.0
2015-Aug-28 16:32N 59°01' E 005°37'0 0.0
2015-Aug-28 15:32N 59°01' E 005°37'0 0.0
2015-Aug-28 14:32N 59°01' E 005°37'0 0.0
2015-Aug-28 13:32N 59°01' E 005°37'0 0.0
2015-Aug-28 12:32N 59°01' E 005°37'0 0.0
2015-Aug-28 11:32N 59°01' E 005°37'0 0.0
2015-Aug-28 10:32N 59°01' E 005°37'0 0.0
2015-Aug-28 09:32N 59°01' E 005°37'0 0.0
2015-Aug-28 08:32N 59°01' E 005°37'0 0.0
2015-Aug-28 07:32N 59°01' E 005°37'0 0.0
2015-Aug-28 06:33N 59°01' E 005°37'0 0.0
2015-Aug-28 05:32N 59°01' E 005°37'0 0.0
2015-Aug-28 04:32N 59°01' E 005°37'0 0.0
2015-Aug-28 03:32N 59°01' E 005°37'0 0.0
2015-Aug-28 02:32N 59°01' E 005°37'0 0.0
2015-Aug-28 01:32N 59°01' E 005°37'0 0.0
2015-Aug-28 00:32N 59°01' E 005°37'0 0.0
2015-Aug-27 23:32N 59°01' E 005°37'0 0.0
2015-Aug-27 22:32N 59°01' E 005°37'0 0.0
2015-Aug-27 21:29N 59°01' E 005°37'0 0.0
2015-Aug-27 20:32N 59°01' E 005°37'0 0.0
2015-Aug-27 19:32N 59°01' E 005°37'0 0.0
2015-Aug-27 18:32N 59°01' E 005°37'0 0.0
2015-Aug-27 17:32N 59°01' E 005°37'0 0.0
2015-Aug-27 16:32N 59°01' E 005°37'0 0.0
2015-Aug-27 15:32N 59°01' E 005°37'0 0.0
2015-Aug-27 14:32N 59°01' E 005°37'0 0.0
2015-Aug-27 13:32N 59°01' E 005°37'0 0.0
2015-Aug-27 12:32N 59°01' E 005°37'0 0.0
2015-Aug-27 11:32N 59°01' E 005°37'0 0.0
2015-Aug-27 10:32N 59°01' E 005°37'0 0.0
2015-Aug-27 09:32N 59°01' E 005°37'0 0.0
2015-Aug-27 08:32N 59°01' E 005°37'0 0.0
2015-Aug-27 07:32N 59°01' E 005°37'0 0.0
2015-Aug-27 06:32N 59°01' E 005°37'0 0.0
2015-Aug-27 05:33N 59°01' E 005°37'6 5.7
2015-Aug-27 04:33N 58°59' E 005°47'2 2.2
2015-Aug-27 03:30N 58°57' E 005°45'0 0.0
2015-Aug-27 02:33N 58°57' E 005°45'0 0.0
2015-Aug-27 01:33N 58°57' E 005°45'0 0.0
2015-Aug-27 00:33N 58°57' E 005°45'0 0.0
2015-Aug-26 23:30N 58°57' E 005°45'0 0.1
2015-Aug-26 22:33N 58°57' E 005°45'0 0.1
2015-Aug-26 21:33N 58°57' E 005°45'0 0.0
2015-Aug-26 20:33N 58°57' E 005°45'0 0.0
2015-Aug-26 19:33N 58°57' E 005°45'0 0.0
2015-Aug-26 18:33N 58°57' E 005°45'0 0.0
2015-Aug-26 17:33N 58°57' E 005°45'0 0.0
2015-Aug-26 16:33N 58°57' E 005°45'0 0.0
2015-Aug-26 15:33N 58°57' E 005°45'0 0.0
2015-Aug-26 14:33N 58°57' E 005°45'0 0.0
2015-Aug-26 13:33N 58°57' E 005°45'0 0.0
2015-Aug-26 12:33N 58°57' E 005°45'0 0.0
2015-Aug-26 11:33N 58°57' E 005°45'0 0.0
2015-Aug-26 10:33N 58°57' E 005°45'0 0.0
2015-Aug-26 09:33N 58°57' E 005°45'0 0.0
2015-Aug-26 08:33N 58°57' E 005°45'0 0.0
2015-Aug-26 07:33N 58°57' E 005°45'0 0.0
2015-Aug-26 06:33N 58°57' E 005°45'0 0.0
2015-Aug-26 05:33N 58°57' E 005°45'0 0.0
2015-Aug-26 04:33N 58°57' E 005°45'0 0.0
2015-Aug-26 03:33N 58°57' E 005°45'0 0.0
2015-Aug-26 02:33N 58°57' E 005°45'0 0.0
2015-Aug-26 01:33N 58°57' E 005°45'0 0.0
2015-Aug-26 00:33N 58°57' E 005°45'0 0.0
2015-Aug-25 23:33N 58°57' E 005°45'0 0.0
2015-Aug-25 22:33N 58°57' E 005°45'0 0.0
2015-Aug-25 21:33N 58°57' E 005°45'0 0.0
2015-Aug-25 20:33N 58°57' E 005°45'0 0.0
2015-Aug-25 19:33N 58°57' E 005°45'0 0.0
2015-Aug-25 18:33N 58°57' E 005°45'0 0.0
2015-Aug-25 17:33N 58°57' E 005°45'0 0.0
2015-Aug-25 16:33N 58°57' E 005°45'0 0.0
2015-Aug-25 15:33N 58°57' E 005°45'0 0.0
2015-Aug-25 14:33N 58°57' E 005°45'0 0.0
2015-Aug-25 13:33N 58°57' E 005°45'0 0.0
2015-Aug-25 12:33N 58°57' E 005°45'0 0.0
2015-Aug-25 11:33N 58°57' E 005°45'0 0.0
2015-Aug-25 10:33N 58°57' E 005°45'0 0.0
2015-Aug-25 09:33N 58°57' E 005°45'0 0.0
2015-Aug-25 08:33N 58°57' E 005°45'0 0.0
2015-Aug-25 07:33N 58°57' E 005°45'0 0.0
2015-Aug-25 06:33N 58°57' E 005°45'0 0.0
2015-Aug-25 05:33N 58°57' E 005°45'0 0.0
2015-Aug-25 04:33N 58°57' E 005°45'0 0.0
2015-Aug-25 03:33N 58°57' E 005°45'0 0.0
2015-Aug-25 02:33N 58°57' E 005°45'0 0.0
2015-Aug-25 01:33N 58°57' E 005°45'0 0.0
2015-Aug-25 00:33N 58°57' E 005°45'0 0.0
2015-Aug-24 23:33N 58°57' E 005°45'0 0.0
2015-Aug-24 22:33N 58°57' E 005°45'0 0.0
2015-Aug-24 21:33N 58°57' E 005°45'0 0.0
2015-Aug-24 20:33N 58°57' E 005°45'0 0.0
2015-Aug-24 19:33N 58°57' E 005°45'0 0.0
2015-Aug-24 18:33N 58°57' E 005°45'5 5.2
2015-Aug-24 17:33N 59°01' E 005°40'6 6.0
2015-Aug-24 16:33N 58°57' E 005°33'8 7.8
2015-Aug-24 15:33N 58°49' E 005°28'19 8.6
2015-Aug-24 13:19N 58°31' E 005°39'810.6
2015-Aug-24 12:33N 58°25' E 005°49'1111.3
2015-Aug-24 11:33N 58°17' E 006°05'1010.3
2015-Aug-24 10:33N 58°11' E 006°20'  
Track history (hours):
 
Tides and Currents Weather Stations Pressure Air Temp Water Temp Dewpoint Dewpoint Depression Visibility Wind Speed Wind Dir Waves Ship Positions

Kine

Last reported at 2015-Sep-02 20:33 UTC. Time now 2015-Sep-03 02:35 UTC.
Position N 55°26' E 015°17'.

Length 89 m; draft 3.5 m.

Type: Cargo ship. MMSI: 311117000.

Date/timePositionNaut miles runAvg speedWind from/ knotsBaromVisibWave heightAir tempDewpointWater temp
2015-Sep-02 20:33N 55°26' E 015°17'1010.1
2015-Sep-02 19:33N 55°24' E 014°60'1010.1
2015-Sep-02 18:33N 55°23' E 014°42'10 9.7
2015-Sep-02 17:33N 55°16' E 014°30'10 9.6
2015-Sep-02 16:33N 55°10' E 014°16'10 9.6
2015-Sep-02 15:33N 55°11' E 013°59'31 9.7
2015-Sep-02 12:19N 55°14' E 013°05'8 9.9
2015-Sep-02 11:34N 55°15' E 012°52'9 9.2
2015-Sep-02 10:33N 55°19' E 012°37'10 9.8
2015-Sep-02 09:33N 55°29' E 012°41'9 9.5
2015-Sep-02 08:33N 55°38' E 012°42'10 9.9
2015-Sep-02 07:33N 55°48' E 012°41'10 9.8
2015-Sep-02 06:34N 55°58' E 012°40'9 9.2
2015-Sep-02 05:33N 56°06' E 012°33'1010.3
2015-Sep-02 04:33N 56°12' E 012°18'19 9.0
2015-Sep-02 02:24N 56°29' E 011°59'8 9.3
2015-Sep-02 01:33N 56°36' E 011°56'9 9.2
2015-Sep-02 00:33N 56°45' E 011°52'10 9.6
2015-Sep-01 23:33N 56°54' E 011°45'9 9.1
2015-Sep-01 22:33N 57°03' E 011°38'10 9.0
2015-Sep-01 21:29N 57°12' E 011°32'8 9.2
2015-Sep-01 20:33N 57°19' E 011°25'9 8.8
2015-Sep-01 19:33N 57°27' E 011°17'9 8.8
2015-Sep-01 18:33N 57°32' E 011°04'9 9.2
2015-Sep-01 17:33N 57°37' E 010°49'11 0.8
2015-Sep-01 04:13N 57°47' E 010°44'4 6.2
2015-Sep-01 03:33N 57°51' E 010°41'6 6.2
2015-Sep-01 02:33N 57°57' E 010°36'6 6.2
2015-Sep-01 01:34N 58°02' E 010°31'6 6.2
2015-Sep-01 00:34N 58°08' E 010°27'6 6.1
2015-Aug-31 23:33N 58°14' E 010°23'6 6.2
2015-Aug-31 22:33N 58°20' E 010°19'6 6.3
2015-Aug-31 21:34N 58°26' E 010°14'7 6.8
2015-Aug-31 20:29N 58°32' E 010°08'7 7.2
2015-Aug-31 19:33N 58°38' E 010°02'7 7.0
2015-Aug-31 18:34N 58°44' E 009°57'7 7.3
2015-Aug-31 17:34N 58°51' E 009°52'8 7.6
2015-Aug-31 16:33N 58°58' E 009°46'2 0.1
2015-Aug-31 03:18N 58°60' E 009°47'6 7.9
2015-Aug-31 02:33N 58°54' E 009°47'7 7.0
2015-Aug-31 01:33N 58°48' E 009°38'7 7.2
2015-Aug-31 00:33N 58°43' E 009°28'8 7.1
2015-Aug-30 23:27N 58°37' E 009°19'7 7.0
2015-Aug-30 22:31N 58°32' E 009°10'6 6.5
2015-Aug-30 21:33N 58°28' E 009°02'6 6.0
2015-Aug-30 20:30N 58°23' E 008°53'6 6.0
2015-Aug-30 19:33N 58°19' E 008°46'6 6.1
2015-Aug-30 18:33N 58°15' E 008°37'6 6.1
2015-Aug-30 17:33N 58°11' E 008°29'6 6.0
2015-Aug-30 16:33N 58°07' E 008°21'68 5.6
2015-Aug-30 04:33N 58°13' E 006°13'7 7.4
2015-Aug-30 03:33N 58°18' E 006°03'9 8.5
2015-Aug-30 02:33N 58°24' E 005°51'8 8.1
2015-Aug-30 01:33N 58°30' E 005°40'16 8.1
2015-Aug-29 23:31N 58°44' E 005°25'7 7.6
2015-Aug-29 22:33N 58°51' E 005°30'9 8.6
2015-Aug-29 21:33N 58°60' E 005°33'3 2.7
2015-Aug-29 20:32N 59°01' E 005°37'0 0.0
2015-Aug-29 19:32N 59°01' E 005°37'0 0.0
2015-Aug-29 18:32N 59°01' E 005°37'0 0.0
2015-Aug-29 17:32N 59°01' E 005°37'0 0.0
2015-Aug-29 16:32N 59°01' E 005°37'0 0.0
2015-Aug-29 15:32N 59°01' E 005°37'0 0.0
2015-Aug-29 14:32N 59°01' E 005°37'0 0.0
2015-Aug-29 13:32N 59°01' E 005°37'0 0.0
2015-Aug-29 12:32N 59°01' E 005°37'0 0.0
2015-Aug-29 11:32N 59°01' E 005°37'0 0.0
2015-Aug-29 10:32N 59°01' E 005°37'0 0.0
2015-Aug-29 09:32N 59°01' E 005°37'0 0.0
2015-Aug-29 08:32N 59°01' E 005°37'0 0.0
2015-Aug-29 07:32N 59°01' E 005°37'0 0.0
2015-Aug-29 06:32N 59°01' E 005°37'0 0.0
2015-Aug-29 05:32N 59°01' E 005°37'0 0.0
2015-Aug-29 04:32N 59°01' E 005°37'0 0.0
2015-Aug-29 03:32N 59°01' E 005°37'0 0.0
2015-Aug-29 02:32N 59°01' E 005°37'0 0.0
2015-Aug-29 01:32N 59°01' E 005°37'0 0.0
2015-Aug-29 00:32N 59°01' E 005°37'0 0.0
2015-Aug-28 23:32N 59°01' E 005°37'0 0.0
2015-Aug-28 22:32N 59°01' E 005°37'0 0.0
2015-Aug-28 21:32N 59°01' E 005°37'0 0.0
2015-Aug-28 20:32N 59°01' E 005°37'0 0.0
2015-Aug-28 19:32N 59°01' E 005°37'0 0.0
2015-Aug-28 18:32N 59°01' E 005°37'0 0.0
2015-Aug-28 17:32N 59°01' E 005°37'0 0.0
2015-Aug-28 16:32N 59°01' E 005°37'0 0.0
2015-Aug-28 15:32N 59°01' E 005°37'0 0.0
2015-Aug-28 14:32N 59°01' E 005°37'0 0.0
2015-Aug-28 13:32N 59°01' E 005°37'0 0.0
2015-Aug-28 12:32N 59°01' E 005°37'0 0.0
2015-Aug-28 11:32N 59°01' E 005°37'0 0.0
2015-Aug-28 10:32N 59°01' E 005°37'0 0.0
2015-Aug-28 09:32N 59°01' E 005°37'0 0.0
2015-Aug-28 08:32N 59°01' E 005°37'0 0.0
2015-Aug-28 07:32N 59°01' E 005°37'0 0.0
2015-Aug-28 06:33N 59°01' E 005°37'0 0.0
2015-Aug-28 05:32N 59°01' E 005°37'0 0.0
2015-Aug-28 04:32N 59°01' E 005°37'0 0.0
2015-Aug-28 03:32N 59°01' E 005°37'0 0.0
2015-Aug-28 02:32N 59°01' E 005°37'0 0.0
2015-Aug-28 01:32N 59°01' E 005°37'0 0.0
2015-Aug-28 00:32N 59°01' E 005°37'0 0.0
2015-Aug-27 23:32N 59°01' E 005°37'0 0.0
2015-Aug-27 22:32N 59°01' E 005°37'0 0.0
2015-Aug-27 21:29N 59°01' E 005°37'0 0.0
2015-Aug-27 20:32N 59°01' E 005°37'0 0.0
2015-Aug-27 19:32N 59°01' E 005°37'0 0.0
2015-Aug-27 18:32N 59°01' E 005°37'0 0.0
2015-Aug-27 17:32N 59°01' E 005°37'0 0.0
2015-Aug-27 16:32N 59°01' E 005°37'0 0.0
2015-Aug-27 15:32N 59°01' E 005°37'0 0.0
2015-Aug-27 14:32N 59°01' E 005°37'0 0.0
2015-Aug-27 13:32N 59°01' E 005°37'0 0.0
2015-Aug-27 12:32N 59°01' E 005°37'0 0.0
2015-Aug-27 11:32N 59°01' E 005°37'0 0.0
2015-Aug-27 10:32N 59°01' E 005°37'0 0.0
2015-Aug-27 09:32N 59°01' E 005°37'0 0.0
2015-Aug-27 08:32N 59°01' E 005°37'0 0.0
2015-Aug-27 07:32N 59°01' E 005°37'0 0.0
2015-Aug-27 06:32N 59°01' E 005°37'0 0.0
2015-Aug-27 05:33N 59°01' E 005°37'6 5.7
2015-Aug-27 04:33N 58°59' E 005°47'2 2.2
2015-Aug-27 03:30N 58°57' E 005°45'0 0.0
2015-Aug-27 02:33N 58°57' E 005°45'0 0.0
2015-Aug-27 01:33N 58°57' E 005°45'0 0.0
2015-Aug-27 00:33N 58°57' E 005°45'0 0.0
2015-Aug-26 23:30N 58°57' E 005°45'0 0.1
2015-Aug-26 22:33N 58°57' E 005°45'0 0.1
2015-Aug-26 21:33N 58°57' E 005°45'0 0.0
2015-Aug-26 20:33N 58°57' E 005°45'0 0.0
2015-Aug-26 19:33N 58°57' E 005°45'0 0.0
2015-Aug-26 18:33N 58°57' E 005°45'0 0.0
2015-Aug-26 17:33N 58°57' E 005°45'0 0.0
2015-Aug-26 16:33N 58°57' E 005°45'0 0.0
2015-Aug-26 15:33N 58°57' E 005°45'0 0.0
2015-Aug-26 14:33N 58°57' E 005°45'0 0.0
2015-Aug-26 13:33N 58°57' E 005°45'0 0.0
2015-Aug-26 12:33N 58°57' E 005°45'0 0.0
2015-Aug-26 11:33N 58°57' E 005°45'0 0.0
2015-Aug-26 10:33N 58°57' E 005°45'0 0.0
2015-Aug-26 09:33N 58°57' E 005°45'0 0.0
2015-Aug-26 08:33N 58°57' E 005°45'0 0.0
2015-Aug-26 07:33N 58°57' E 005°45'0 0.0
2015-Aug-26 06:33N 58°57' E 005°45'0 0.0
2015-Aug-26 05:33N 58°57' E 005°45'0 0.0
2015-Aug-26 04:33N 58°57' E 005°45'0 0.0
2015-Aug-26 03:33N 58°57' E 005°45'0 0.0
2015-Aug-26 02:33N 58°57' E 005°45'0 0.0
2015-Aug-26 01:33N 58°57' E 005°45'0 0.0
2015-Aug-26 00:33N 58°57' E 005°45'0 0.0
2015-Aug-25 23:33N 58°57' E 005°45'0 0.0
2015-Aug-25 22:33N 58°57' E 005°45'0 0.0
2015-Aug-25 21:33N 58°57' E 005°45'0 0.0
2015-Aug-25 20:33N 58°57' E 005°45'0 0.0
2015-Aug-25 19:33N 58°57' E 005°45'0 0.0
2015-Aug-25 18:33N 58°57' E 005°45'0 0.0
2015-Aug-25 17:33N 58°57' E 005°45'0 0.0
2015-Aug-25 16:33N 58°57' E 005°45'0 0.0
2015-Aug-25 15:33N 58°57' E 005°45'0 0.0
2015-Aug-25 14:33N 58°57' E 005°45'0 0.0
2015-Aug-25 13:33N 58°57' E 005°45'0 0.0
2015-Aug-25 12:33N 58°57' E 005°45'0 0.0
2015-Aug-25 11:33N 58°57' E 005°45'0 0.0
2015-Aug-25 10:33N 58°57' E 005°45'0 0.0
2015-Aug-25 09:33N 58°57' E 005°45'0 0.0
2015-Aug-25 08:33N 58°57' E 005°45'0 0.0
2015-Aug-25 07:33N 58°57' E 005°45'0 0.0
2015-Aug-25 06:33N 58°57' E 005°45'0 0.0
2015-Aug-25 05:33N 58°57' E 005°45'0 0.0
2015-Aug-25 04:33N 58°57' E 005°45'0 0.0
2015-Aug-25 03:33N 58°57' E 005°45'0 0.0
2015-Aug-25 02:33N 58°57' E 005°45'0 0.0
2015-Aug-25 01:33N 58°57' E 005°45'0 0.0
2015-Aug-25 00:33N 58°57' E 005°45'0 0.0
2015-Aug-24 23:33N 58°57' E 005°45'0 0.0
2015-Aug-24 22:33N 58°57' E 005°45'0 0.0
2015-Aug-24 21:33N 58°57' E 005°45'0 0.0
2015-Aug-24 20:33N 58°57' E 005°45'0 0.0
2015-Aug-24 19:33N 58°57' E 005°45'0 0.0
2015-Aug-24 18:33N 58°57' E 005°45'5 5.2
2015-Aug-24 17:33N 59°01' E 005°40'6 6.0
2015-Aug-24 16:33N 58°57' E 005°33'8 7.8
2015-Aug-24 15:33N 58°49' E 005°28'19 8.6
2015-Aug-24 13:19N 58°31' E 005°39'810.6
2015-Aug-24 12:33N 58°25' E 005°49'1111.3
2015-Aug-24 11:33N 58°17' E 006°05'1010.3
2015-Aug-24 10:33N 58°11' E 006°20'  

Dump ship's entire track history